sensor_id;sensor_type;location;lat;lon;timestamp;P1;durP1;ratioP1;P2;durP2;ratioP2
19780;SDS011;10050;55.492;13.506;2022-08-03T00:01:49;5.37;;;2.20;;
19780;SDS011;10050;55.492;13.506;2022-08-03T00:04:14;1.90;;;1.80;;
19780;SDS011;10050;55.492;13.506;2022-08-03T00:06:40;3.10;;;1.70;;
19780;SDS011;10050;55.492;13.506;2022-08-03T00:09:06;3.57;;;1.80;;
19780;SDS011;10050;55.492;13.506;2022-08-03T00:11:32;6.77;;;2.30;;
19780;SDS011;10050;55.492;13.506;2022-08-03T00:13:58;5.63;;;1.80;;
19780;SDS011;10050;55.492;13.506;2022-08-03T00:16:24;4.40;;;2.03;;
19780;SDS011;10050;55.492;13.506;2022-08-03T00:18:50;3.83;;;1.90;;
19780;SDS011;10050;55.492;13.506;2022-08-03T00:21:16;2.50;;;1.70;;
19780;SDS011;10050;55.492;13.506;2022-08-03T00:23:41;3.80;;;1.40;;
19780;SDS011;10050;55.492;13.506;2022-08-03T00:26:07;4.63;;;2.10;;
19780;SDS011;10050;55.492;13.506;2022-08-03T00:28:33;2.57;;;1.67;;
19780;SDS011;10050;55.492;13.506;2022-08-03T00:30:58;4.57;;;1.67;;
19780;SDS011;10050;55.492;13.506;2022-08-03T00:33:24;2.33;;;1.57;;
19780;SDS011;10050;55.492;13.506;2022-08-03T00:35:50;2.97;;;1.73;;
19780;SDS011;10050;55.492;13.506;2022-08-03T00:38:16;3.10;;;1.60;;
19780;SDS011;10050;55.492;13.506;2022-08-03T00:40:42;5.73;;;2.30;;
19780;SDS011;10050;55.492;13.506;2022-08-03T00:43:07;2.93;;;1.70;;
19780;SDS011;10050;55.492;13.506;2022-08-03T00:45:37;4.10;;;1.80;;
19780;SDS011;10050;55.492;13.506;2022-08-03T00:48:05;3.53;;;2.07;;
19780;SDS011;10050;55.492;13.506;2022-08-03T00:50:35;2.97;;;1.47;;
19780;SDS011;10050;55.492;13.506;2022-08-03T00:53:06;2.97;;;2.27;;
19780;SDS011;10050;55.492;13.506;2022-08-03T00:55:35;2.20;;;1.50;;
19780;SDS011;10050;55.492;13.506;2022-08-03T00:58:02;4.67;;;1.93;;
19780;SDS011;10050;55.492;13.506;2022-08-03T01:00:30;5.97;;;2.00;;
19780;SDS011;10050;55.492;13.506;2022-08-03T01:02:57;5.53;;;1.63;;
19780;SDS011;10050;55.492;13.506;2022-08-03T01:05:23;5.20;;;1.90;;
19780;SDS011;10050;55.492;13.506;2022-08-03T01:10:27;2.60;;;1.77;;
19780;SDS011;10050;55.492;13.506;2022-08-03T01:13:14;2.30;;;2.03;;
19780;SDS011;10050;55.492;13.506;2022-08-03T01:15:43;4.17;;;1.97;;
19780;SDS011;10050;55.492;13.506;2022-08-03T01:29:40;5.00;;;2.47;;
19780;SDS011;10050;55.492;13.506;2022-08-03T01:32:12;4.13;;;2.17;;
19780;SDS011;10050;55.492;13.506;2022-08-03T01:34:44;7.40;;;2.30;;
19780;SDS011;10050;55.492;13.506;2022-08-03T01:37:17;5.03;;;1.90;;
19780;SDS011;10050;55.492;13.506;2022-08-03T01:39:48;7.60;;;2.53;;
19780;SDS011;10050;55.492;13.506;2022-08-03T01:42:18;3.87;;;1.93;;
19780;SDS011;10050;55.492;13.506;2022-08-03T01:44:45;5.37;;;2.20;;
19780;SDS011;10050;55.492;13.506;2022-08-03T01:47:12;4.93;;;2.40;;
19780;SDS011;10050;55.492;13.506;2022-08-03T01:49:43;6.33;;;2.10;;
19780;SDS011;10050;55.492;13.506;2022-08-03T01:52:10;5.10;;;2.03;;
19780;SDS011;10050;55.492;13.506;2022-08-03T01:54:42;3.50;;;1.90;;
19780;SDS011;10050;55.492;13.506;2022-08-03T01:57:10;6.93;;;2.83;;
19780;SDS011;10050;55.492;13.506;2022-08-03T01:59:37;4.67;;;2.27;;
19780;SDS011;10050;55.492;13.506;2022-08-03T02:02:04;5.03;;;2.23;;
19780;SDS011;10050;55.492;13.506;2022-08-03T02:04:31;2.77;;;2.50;;
19780;SDS011;10050;55.492;13.506;2022-08-03T02:06:58;3.73;;;2.07;;
19780;SDS011;10050;55.492;13.506;2022-08-03T02:09:25;3.37;;;2.13;;
19780;SDS011;10050;55.492;13.506;2022-08-03T02:11:52;3.13;;;2.10;;
19780;SDS011;10050;55.492;13.506;2022-08-03T02:14:20;3.80;;;1.90;;
19780;SDS011;10050;55.492;13.506;2022-08-03T02:16:48;5.33;;;2.10;;
19780;SDS011;10050;55.492;13.506;2022-08-03T02:19:14;5.50;;;2.30;;
19780;SDS011;10050;55.492;13.506;2022-08-03T02:21:41;5.23;;;1.60;;
19780;SDS011;10050;55.492;13.506;2022-08-03T02:24:09;5.20;;;2.20;;
19780;SDS011;10050;55.492;13.506;2022-08-03T02:26:35;4.33;;;2.20;;
19780;SDS011;10050;55.492;13.506;2022-08-03T02:29:09;2.60;;;2.00;;
19780;SDS011;10050;55.492;13.506;2022-08-03T02:31:39;7.13;;;2.20;;
19780;SDS011;10050;55.492;13.506;2022-08-03T02:34:08;4.70;;;2.37;;
19780;SDS011;10050;55.492;13.506;2022-08-03T02:36:37;4.43;;;2.40;;
19780;SDS011;10050;55.492;13.506;2022-08-03T02:39:05;3.80;;;2.30;;
19780;SDS011;10050;55.492;13.506;2022-08-03T02:41:46;4.63;;;2.50;;
19780;SDS011;10050;55.492;13.506;2022-08-03T02:44:15;6.50;;;2.37;;
19780;SDS011;10050;55.492;13.506;2022-08-03T02:46:45;2.63;;;1.87;;
19780;SDS011;10050;55.492;13.506;2022-08-03T02:49:13;4.10;;;2.20;;
19780;SDS011;10050;55.492;13.506;2022-08-03T02:51:42;2.93;;;1.93;;
19780;SDS011;10050;55.492;13.506;2022-08-03T02:54:09;7.43;;;2.27;;
19780;SDS011;10050;55.492;13.506;2022-08-03T02:56:38;3.93;;;2.40;;
19780;SDS011;10050;55.492;13.506;2022-08-03T02:59:05;2.83;;;2.47;;
19780;SDS011;10050;55.492;13.506;2022-08-03T03:01:33;5.57;;;2.27;;
19780;SDS011;10050;55.492;13.506;2022-08-03T03:03:59;6.57;;;2.10;;
19780;SDS011;10050;55.492;13.506;2022-08-03T03:06:25;4.57;;;2.40;;
19780;SDS011;10050;55.492;13.506;2022-08-03T03:08:53;5.00;;;1.90;;
19780;SDS011;10050;55.492;13.506;2022-08-03T03:11:20;4.70;;;1.97;;
19780;SDS011;10050;55.492;13.506;2022-08-03T03:13:47;3.87;;;2.10;;
19780;SDS011;10050;55.492;13.506;2022-08-03T03:16:14;3.70;;;2.37;;
19780;SDS011;10050;55.492;13.506;2022-08-03T03:18:41;4.17;;;1.80;;
19780;SDS011;10050;55.492;13.506;2022-08-03T03:21:09;4.63;;;1.93;;
19780;SDS011;10050;55.492;13.506;2022-08-03T03:23:37;2.43;;;2.00;;
19780;SDS011;10050;55.492;13.506;2022-08-03T03:26:04;4.73;;;1.93;;
19780;SDS011;10050;55.492;13.506;2022-08-03T03:28:33;3.47;;;2.13;;
19780;SDS011;10050;55.492;13.506;2022-08-03T03:31:03;3.43;;;1.93;;
19780;SDS011;10050;55.492;13.506;2022-08-03T03:33:30;2.43;;;1.73;;
19780;SDS011;10050;55.492;13.506;2022-08-03T03:35:58;5.73;;;1.80;;
19780;SDS011;10050;55.492;13.506;2022-08-03T03:38:23;4.70;;;2.30;;
19780;SDS011;10050;55.492;13.506;2022-08-03T03:40:49;2.67;;;1.77;;
19780;SDS011;10050;55.492;13.506;2022-08-03T03:43:15;3.60;;;1.73;;
19780;SDS011;10050;55.492;13.506;2022-08-03T03:45:42;2.60;;;1.90;;
19780;SDS011;10050;55.492;13.506;2022-08-03T03:48:09;5.90;;;2.17;;
19780;SDS011;10050;55.492;13.506;2022-08-03T03:50:35;2.93;;;1.70;;
19780;SDS011;10050;55.492;13.506;2022-08-03T03:53:07;2.40;;;1.90;;
19780;SDS011;10050;55.492;13.506;2022-08-03T03:55:34;2.70;;;1.60;;
19780;SDS011;10050;55.492;13.506;2022-08-03T03:58:00;3.00;;;2.00;;
19780;SDS011;10050;55.492;13.506;2022-08-03T04:00:27;3.57;;;1.93;;
19780;SDS011;10050;55.492;13.506;2022-08-03T04:02:53;4.33;;;2.40;;
19780;SDS011;10050;55.492;13.506;2022-08-03T04:05:19;2.77;;;2.30;;
19780;SDS011;10050;55.492;13.506;2022-08-03T04:08:07;3.57;;;2.40;;
19780;SDS011;10050;55.492;13.506;2022-08-03T04:11:04;2.77;;;1.80;;
19780;SDS011;10050;55.492;13.506;2022-08-03T04:13:35;1.97;;;1.77;;
19780;SDS011;10050;55.492;13.506;2022-08-03T04:16:03;2.57;;;1.60;;
19780;SDS011;10050;55.492;13.506;2022-08-03T04:18:31;3.10;;;2.10;;
19780;SDS011;10050;55.492;13.506;2022-08-03T04:21:01;5.17;;;1.90;;
19780;SDS011;10050;55.492;13.506;2022-08-03T04:23:30;3.93;;;1.93;;
19780;SDS011;10050;55.492;13.506;2022-08-03T04:25:59;3.60;;;2.03;;
19780;SDS011;10050;55.492;13.506;2022-08-03T04:28:27;10.07;;;2.43;;
19780;SDS011;10050;55.492;13.506;2022-08-03T04:30:54;3.73;;;2.00;;
19780;SDS011;10050;55.492;13.506;2022-08-03T04:33:21;4.20;;;2.30;;
19780;SDS011;10050;55.492;13.506;2022-08-03T04:35:50;4.60;;;2.40;;
19780;SDS011;10050;55.492;13.506;2022-08-03T04:38:19;2.80;;;2.13;;
19780;SDS011;10050;55.492;13.506;2022-08-03T04:40:48;5.50;;;2.30;;
19780;SDS011;10050;55.492;13.506;2022-08-03T04:43:16;6.30;;;2.20;;
19780;SDS011;10050;55.492;13.506;2022-08-03T04:45:45;7.37;;;2.67;;
19780;SDS011;10050;55.492;13.506;2022-08-03T04:48:12;4.07;;;2.43;;
19780;SDS011;10050;55.492;13.506;2022-08-03T04:50:39;13.23;;;2.43;;
19780;SDS011;10050;55.492;13.506;2022-08-03T04:53:06;4.87;;;2.20;;
19780;SDS011;10050;55.492;13.506;2022-08-03T04:55:33;5.80;;;1.83;;
19780;SDS011;10050;55.492;13.506;2022-08-03T04:58:00;11.10;;;2.17;;
19780;SDS011;10050;55.492;13.506;2022-08-03T05:00:27;4.23;;;2.27;;
19780;SDS011;10050;55.492;13.506;2022-08-03T05:02:54;2.97;;;2.13;;
19780;SDS011;10050;55.492;13.506;2022-08-03T05:05:19;9.17;;;1.90;;
19780;SDS011;10050;55.492;13.506;2022-08-03T05:07:46;4.27;;;2.10;;
19780;SDS011;10050;55.492;13.506;2022-08-03T05:10:11;3.83;;;2.40;;
19780;SDS011;10050;55.492;13.506;2022-08-03T05:12:38;4.47;;;1.93;;
19780;SDS011;10050;55.492;13.506;2022-08-03T05:15:04;11.47;;;2.37;;
19780;SDS011;10050;55.492;13.506;2022-08-03T05:17:30;12.43;;;2.87;;
19780;SDS011;10050;55.492;13.506;2022-08-03T05:19:57;9.57;;;3.10;;
19780;SDS011;10050;55.492;13.506;2022-08-03T05:22:24;4.93;;;2.27;;
19780;SDS011;10050;55.492;13.506;2022-08-03T05:24:49;4.50;;;2.00;;
19780;SDS011;10050;55.492;13.506;2022-08-03T05:27:15;6.17;;;1.70;;
19780;SDS011;10050;55.492;13.506;2022-08-03T05:29:47;3.60;;;1.90;;
19780;SDS011;10050;55.492;13.506;2022-08-03T05:32:13;6.10;;;2.03;;
19780;SDS011;10050;55.492;13.506;2022-08-03T05:34:39;4.57;;;2.00;;
19780;SDS011;10050;55.492;13.506;2022-08-03T05:37:05;4.10;;;1.63;;
19780;SDS011;10050;55.492;13.506;2022-08-03T05:39:34;3.93;;;1.90;;
19780;SDS011;10050;55.492;13.506;2022-08-03T05:41:59;8.43;;;2.10;;
19780;SDS011;10050;55.492;13.506;2022-08-03T05:44:25;4.20;;;1.83;;
19780;SDS011;10050;55.492;13.506;2022-08-03T05:46:51;4.33;;;1.97;;
19780;SDS011;10050;55.492;13.506;2022-08-03T05:49:17;3.83;;;1.70;;
19780;SDS011;10050;55.492;13.506;2022-08-03T05:51:43;3.57;;;1.93;;
19780;SDS011;10050;55.492;13.506;2022-08-03T05:54:09;2.60;;;1.50;;
19780;SDS011;10050;55.492;13.506;2022-08-03T05:56:35;4.90;;;2.03;;
19780;SDS011;10050;55.492;13.506;2022-08-03T05:59:01;5.70;;;1.80;;
19780;SDS011;10050;55.492;13.506;2022-08-03T06:01:27;3.13;;;1.73;;
19780;SDS011;10050;55.492;13.506;2022-08-03T06:03:53;3.50;;;1.50;;
19780;SDS011;10050;55.492;13.506;2022-08-03T06:06:19;3.33;;;1.80;;
19780;SDS011;10050;55.492;13.506;2022-08-03T06:08:45;3.17;;;1.70;;
19780;SDS011;10050;55.492;13.506;2022-08-03T06:11:12;2.40;;;1.47;;
19780;SDS011;10050;55.492;13.506;2022-08-03T06:13:38;2.47;;;1.50;;
19780;SDS011;10050;55.492;13.506;2022-08-03T06:16:04;4.50;;;1.97;;
19780;SDS011;10050;55.492;13.506;2022-08-03T06:18:30;5.73;;;1.63;;
19780;SDS011;10050;55.492;13.506;2022-08-03T06:20:55;3.43;;;1.77;;
19780;SDS011;10050;55.492;13.506;2022-08-03T06:23:21;5.17;;;1.90;;
19780;SDS011;10050;55.492;13.506;2022-08-03T06:25:47;3.07;;;1.70;;
19780;SDS011;10050;55.492;13.506;2022-08-03T06:28:13;4.03;;;2.10;;
19780;SDS011;10050;55.492;13.506;2022-08-03T06:30:39;2.47;;;2.00;;
19780;SDS011;10050;55.492;13.506;2022-08-03T06:33:05;6.67;;;1.63;;
19780;SDS011;10050;55.492;13.506;2022-08-03T06:35:31;4.67;;;1.73;;
19780;SDS011;10050;55.492;13.506;2022-08-03T06:37:57;5.97;;;2.00;;
19780;SDS011;10050;55.492;13.506;2022-08-03T06:40:23;6.67;;;2.03;;
19780;SDS011;10050;55.492;13.506;2022-08-03T06:42:59;2.77;;;1.60;;
19780;SDS011;10050;55.492;13.506;2022-08-03T06:45:26;2.53;;;1.90;;
19780;SDS011;10050;55.492;13.506;2022-08-03T06:50:45;3.93;;;2.30;;
19780;SDS011;10050;55.492;13.506;2022-08-03T06:53:10;4.33;;;1.90;;
19780;SDS011;10050;55.492;13.506;2022-08-03T06:55:36;4.40;;;2.07;;
19780;SDS011;10050;55.492;13.506;2022-08-03T06:58:01;3.57;;;1.57;;
19780;SDS011;10050;55.492;13.506;2022-08-03T07:00:27;3.60;;;1.80;;
19780;SDS011;10050;55.492;13.506;2022-08-03T07:02:54;3.27;;;1.80;;
19780;SDS011;10050;55.492;13.506;2022-08-03T07:05:20;2.47;;;1.57;;
19780;SDS011;10050;55.492;13.506;2022-08-03T07:07:46;3.53;;;1.90;;
19780;SDS011;10050;55.492;13.506;2022-08-03T07:10:12;4.13;;;1.67;;
19780;SDS011;10050;55.492;13.506;2022-08-03T07:12:38;5.30;;;1.70;;
19780;SDS011;10050;55.492;13.506;2022-08-03T07:15:04;3.80;;;2.03;;
19780;SDS011;10050;55.492;13.506;2022-08-03T07:17:31;3.43;;;1.90;;
19780;SDS011;10050;55.492;13.506;2022-08-03T07:19:58;7.83;;;2.30;;
19780;SDS011;10050;55.492;13.506;2022-08-03T07:22:25;3.50;;;1.80;;
19780;SDS011;10050;55.492;13.506;2022-08-03T07:24:51;5.03;;;2.00;;
19780;SDS011;10050;55.492;13.506;2022-08-03T07:27:17;4.30;;;2.20;;
19780;SDS011;10050;55.492;13.506;2022-08-03T07:29:42;3.50;;;1.83;;
19780;SDS011;10050;55.492;13.506;2022-08-03T07:32:08;2.70;;;2.00;;
19780;SDS011;10050;55.492;13.506;2022-08-03T07:34:33;1.90;;;1.80;;
19780;SDS011;10050;55.492;13.506;2022-08-03T07:36:59;3.67;;;2.00;;
19780;SDS011;10050;55.492;13.506;2022-08-03T07:39:25;4.00;;;2.07;;
19780;SDS011;10050;55.492;13.506;2022-08-03T07:41:51;5.77;;;2.13;;
19780;SDS011;10050;55.492;13.506;2022-08-03T07:44:17;5.17;;;2.33;;
19780;SDS011;10050;55.492;13.506;2022-08-03T07:46:43;2.03;;;1.70;;
19780;SDS011;10050;55.492;13.506;2022-08-03T07:49:09;3.43;;;2.07;;
19780;SDS011;10050;55.492;13.506;2022-08-03T07:51:34;2.97;;;1.97;;
19780;SDS011;10050;55.492;13.506;2022-08-03T07:54:00;8.97;;;2.40;;
19780;SDS011;10050;55.492;13.506;2022-08-03T07:56:26;4.00;;;1.97;;
19780;SDS011;10050;55.492;13.506;2022-08-03T07:58:52;3.17;;;2.00;;
19780;SDS011;10050;55.492;13.506;2022-08-03T08:01:18;3.47;;;2.10;;
19780;SDS011;10050;55.492;13.506;2022-08-03T08:03:45;2.57;;;1.80;;
19780;SDS011;10050;55.492;13.506;2022-08-03T08:06:11;4.47;;;1.87;;
19780;SDS011;10050;55.492;13.506;2022-08-03T08:08:37;2.33;;;2.00;;
19780;SDS011;10050;55.492;13.506;2022-08-03T08:11:03;4.90;;;2.37;;
19780;SDS011;10050;55.492;13.506;2022-08-03T08:13:29;4.30;;;2.07;;
19780;SDS011;10050;55.492;13.506;2022-08-03T08:15:55;3.20;;;2.10;;
19780;SDS011;10050;55.492;13.506;2022-08-03T08:18:20;4.87;;;1.93;;
19780;SDS011;10050;55.492;13.506;2022-08-03T08:20:47;4.27;;;2.30;;
19780;SDS011;10050;55.492;13.506;2022-08-03T08:23:13;2.57;;;2.17;;
19780;SDS011;10050;55.492;13.506;2022-08-03T08:25:39;3.40;;;2.20;;
19780;SDS011;10050;55.492;13.506;2022-08-03T08:28:05;3.63;;;2.30;;
19780;SDS011;10050;55.492;13.506;2022-08-03T08:30:32;4.73;;;2.00;;
19780;SDS011;10050;55.492;13.506;2022-08-03T08:32:57;2.93;;;1.80;;
19780;SDS011;10050;55.492;13.506;2022-08-03T08:35:23;3.70;;;2.30;;
19780;SDS011;10050;55.492;13.506;2022-08-03T08:37:49;5.83;;;2.30;;
19780;SDS011;10050;55.492;13.506;2022-08-03T08:40:15;3.77;;;2.00;;
19780;SDS011;10050;55.492;13.506;2022-08-03T08:42:44;3.83;;;1.83;;
19780;SDS011;10050;55.492;13.506;2022-08-03T08:45:11;2.53;;;2.37;;
19780;SDS011;10050;55.492;13.506;2022-08-03T08:47:40;4.77;;;2.40;;
19780;SDS011;10050;55.492;13.506;2022-08-03T08:50:09;3.37;;;2.40;;
19780;SDS011;10050;55.492;13.506;2022-08-03T08:52:36;4.77;;;2.40;;
19780;SDS011;10050;55.492;13.506;2022-08-03T08:55:06;7.60;;;2.83;;
19780;SDS011;10050;55.492;13.506;2022-08-03T08:57:34;5.07;;;2.33;;
19780;SDS011;10050;55.492;13.506;2022-08-03T09:00:05;3.13;;;2.20;;
19780;SDS011;10050;55.492;13.506;2022-08-03T09:02:38;2.80;;;2.13;;
19780;SDS011;10050;55.492;13.506;2022-08-03T09:05:03;1.97;;;1.80;;
19780;SDS011;10050;55.492;13.506;2022-08-03T09:07:29;3.33;;;2.30;;
19780;SDS011;10050;55.492;13.506;2022-08-03T09:09:55;7.73;;;2.40;;
19780;SDS011;10050;55.492;13.506;2022-08-03T09:12:21;2.73;;;1.97;;
19780;SDS011;10050;55.492;13.506;2022-08-03T09:14:46;3.70;;;2.03;;
19780;SDS011;10050;55.492;13.506;2022-08-03T09:17:13;2.40;;;2.20;;
19780;SDS011;10050;55.492;13.506;2022-08-03T09:19:39;4.33;;;2.60;;
19780;SDS011;10050;55.492;13.506;2022-08-03T09:22:08;5.53;;;2.60;;
19780;SDS011;10050;55.492;13.506;2022-08-03T09:24:35;3.60;;;2.33;;
19780;SDS011;10050;55.492;13.506;2022-08-03T09:27:01;3.57;;;2.40;;
19780;SDS011;10050;55.492;13.506;2022-08-03T09:29:30;2.93;;;2.33;;
19780;SDS011;10050;55.492;13.506;2022-08-03T09:32:00;4.70;;;2.83;;
19780;SDS011;10050;55.492;13.506;2022-08-03T09:34:27;4.07;;;2.93;;
19780;SDS011;10050;55.492;13.506;2022-08-03T09:36:53;4.30;;;2.30;;
19780;SDS011;10050;55.492;13.506;2022-08-03T09:39:20;5.83;;;2.50;;
19780;SDS011;10050;55.492;13.506;2022-08-03T09:41:48;3.40;;;2.50;;
19780;SDS011;10050;55.492;13.506;2022-08-03T09:44:46;3.23;;;2.30;;
19780;SDS011;10050;55.492;13.506;2022-08-03T09:47:14;4.47;;;2.70;;
19780;SDS011;10050;55.492;13.506;2022-08-03T09:50:08;2.40;;;1.93;;
19780;SDS011;10050;55.492;13.506;2022-08-03T09:52:35;2.80;;;2.17;;
19780;SDS011;10050;55.492;13.506;2022-08-03T09:55:10;3.97;;;2.10;;
19780;SDS011;10050;55.492;13.506;2022-08-03T09:57:37;3.33;;;2.60;;
19780;SDS011;10050;55.492;13.506;2022-08-03T10:00:11;3.17;;;2.30;;
19780;SDS011;10050;55.492;13.506;2022-08-03T10:02:39;4.20;;;2.30;;
19780;SDS011;10050;55.492;13.506;2022-08-03T10:05:06;2.77;;;2.57;;
19780;SDS011;10050;55.492;13.506;2022-08-03T10:07:43;3.40;;;2.40;;
19780;SDS011;10050;55.492;13.506;2022-08-03T10:10:10;2.83;;;2.53;;
19780;SDS011;10050;55.492;13.506;2022-08-03T10:12:37;4.97;;;2.33;;
19780;SDS011;10050;55.492;13.506;2022-08-03T10:15:04;2.20;;;2.10;;
19780;SDS011;10050;55.492;13.506;2022-08-03T10:17:30;5.30;;;2.60;;
19780;SDS011;10050;55.492;13.506;2022-08-03T10:19:56;2.80;;;2.60;;
19780;SDS011;10050;55.492;13.506;2022-08-03T10:22:27;3.20;;;2.90;;
19780;SDS011;10050;55.492;13.506;2022-08-03T10:27:33;19.57;;;4.47;;
19780;SDS011;10050;55.492;13.506;2022-08-03T10:30:03;6.03;;;2.87;;
19780;SDS011;10050;55.492;13.506;2022-08-03T10:32:42;2.80;;;2.27;;
19780;SDS011;10050;55.492;13.506;2022-08-03T10:35:16;4.30;;;3.00;;
19780;SDS011;10050;55.492;13.506;2022-08-03T10:37:51;4.83;;;3.23;;
19780;SDS011;10050;55.492;13.506;2022-08-03T10:40:23;2.47;;;2.37;;
19780;SDS011;10050;55.492;13.506;2022-08-03T10:42:59;3.90;;;2.57;;
19780;SDS011;10050;55.492;13.506;2022-08-03T10:45:31;3.07;;;2.57;;
19780;SDS011;10050;55.492;13.506;2022-08-03T10:48:00;3.50;;;2.70;;
19780;SDS011;10050;55.492;13.506;2022-08-03T10:50:26;3.10;;;2.80;;
19780;SDS011;10050;55.492;13.506;2022-08-03T10:52:56;6.87;;;2.47;;
19780;SDS011;10050;55.492;13.506;2022-08-03T10:55:56;5.20;;;2.40;;
19780;SDS011;10050;55.492;13.506;2022-08-03T11:01:03;2.90;;;2.60;;
19780;SDS011;10050;55.492;13.506;2022-08-03T11:03:29;2.80;;;2.47;;
19780;SDS011;10050;55.492;13.506;2022-08-03T11:06:16;4.60;;;2.73;;
19780;SDS011;10050;55.492;13.506;2022-08-03T11:08:46;2.47;;;2.27;;
19780;SDS011;10050;55.492;13.506;2022-08-03T11:16:34;4.00;;;2.60;;
19780;SDS011;10050;55.492;13.506;2022-08-03T11:19:05;3.37;;;2.80;;
19780;SDS011;10050;55.492;13.506;2022-08-03T11:30:00;3.70;;;2.83;;
19780;SDS011;10050;55.492;13.506;2022-08-03T11:46:12;5.90;;;2.60;;
19780;SDS011;10050;55.492;13.506;2022-08-03T11:48:42;3.03;;;1.73;;
19780;SDS011;10050;55.492;13.506;2022-08-03T11:51:25;3.20;;;1.93;;
19780;SDS011;10050;55.492;13.506;2022-08-03T11:56:19;3.03;;;2.30;;
19780;SDS011;10050;55.492;13.506;2022-08-03T11:58:49;3.90;;;2.00;;
19780;SDS011;10050;55.492;13.506;2022-08-03T12:01:17;3.40;;;2.20;;
19780;SDS011;10050;55.492;13.506;2022-08-03T12:03:44;4.13;;;2.53;;
19780;SDS011;10050;55.492;13.506;2022-08-03T12:06:10;2.57;;;2.23;;
19780;SDS011;10050;55.492;13.506;2022-08-03T12:08:37;4.60;;;2.23;;
19780;SDS011;10050;55.492;13.506;2022-08-03T12:11:06;5.93;;;2.40;;
19780;SDS011;10050;55.492;13.506;2022-08-03T12:14:06;2.73;;;2.30;;
19780;SDS011;10050;55.492;13.506;2022-08-03T12:16:27;2.80;;;2.00;;
19780;SDS011;10050;55.492;13.506;2022-08-03T12:19:00;2.50;;;2.30;;
19780;SDS011;10050;55.492;13.506;2022-08-03T12:21:29;3.80;;;2.67;;
19780;SDS011;10050;55.492;13.506;2022-08-03T12:23:55;3.00;;;2.10;;
19780;SDS011;10050;55.492;13.506;2022-08-03T12:26:23;2.33;;;2.10;;
19780;SDS011;10050;55.492;13.506;2022-08-03T12:28:49;2.20;;;1.90;;
19780;SDS011;10050;55.492;13.506;2022-08-03T12:31:15;3.27;;;2.30;;
19780;SDS011;10050;55.492;13.506;2022-08-03T12:33:54;3.80;;;2.20;;
19780;SDS011;10050;55.492;13.506;2022-08-03T12:36:22;2.33;;;1.97;;
19780;SDS011;10050;55.492;13.506;2022-08-03T12:38:55;3.50;;;2.20;;
19780;SDS011;10050;55.492;13.506;2022-08-03T12:41:26;2.30;;;1.87;;
19780;SDS011;10050;55.492;13.506;2022-08-03T12:43:59;4.23;;;2.40;;
19780;SDS011;10050;55.492;13.506;2022-08-03T12:46:30;4.70;;;1.97;;
19780;SDS011;10050;55.492;13.506;2022-08-03T12:49:14;3.63;;;2.00;;
19780;SDS011;10050;55.492;13.506;2022-08-03T12:54:07;3.30;;;2.30;;
19780;SDS011;10050;55.492;13.506;2022-08-03T12:57:00;3.20;;;2.33;;
19780;SDS011;10050;55.492;13.506;2022-08-03T13:01:59;2.70;;;2.50;;
19780;SDS011;10050;55.492;13.506;2022-08-03T13:04:26;2.87;;;2.60;;
19780;SDS011;10050;55.492;13.506;2022-08-03T13:06:56;2.60;;;2.40;;
19780;SDS011;10050;55.492;13.506;2022-08-03T13:09:23;4.17;;;2.37;;
19780;SDS011;10050;55.492;13.506;2022-08-03T13:14:35;6.63;;;3.50;;
19780;SDS011;10050;55.492;13.506;2022-08-03T13:17:02;2.80;;;2.60;;
19780;SDS011;10050;55.492;13.506;2022-08-03T13:19:28;8.03;;;3.40;;
19780;SDS011;10050;55.492;13.506;2022-08-03T13:21:55;3.67;;;2.60;;
19780;SDS011;10050;55.492;13.506;2022-08-03T13:24:21;8.13;;;3.00;;
19780;SDS011;10050;55.492;13.506;2022-08-03T13:26:46;3.13;;;2.70;;
19780;SDS011;10050;55.492;13.506;2022-08-03T13:29:12;5.03;;;2.83;;
19780;SDS011;10050;55.492;13.506;2022-08-03T13:31:37;3.50;;;2.97;;
19780;SDS011;10050;55.492;13.506;2022-08-03T13:34:03;3.80;;;2.77;;
19780;SDS011;10050;55.492;13.506;2022-08-03T13:36:29;5.03;;;2.70;;
19780;SDS011;10050;55.492;13.506;2022-08-03T13:38:54;3.47;;;2.50;;
19780;SDS011;10050;55.492;13.506;2022-08-03T13:41:20;2.27;;;2.17;;
19780;SDS011;10050;55.492;13.506;2022-08-03T13:43:46;3.43;;;2.70;;
19780;SDS011;10050;55.492;13.506;2022-08-03T13:46:11;3.20;;;2.90;;
19780;SDS011;10050;55.492;13.506;2022-08-03T13:48:37;2.50;;;2.20;;
19780;SDS011;10050;55.492;13.506;2022-08-03T13:51:03;3.33;;;2.10;;
19780;SDS011;10050;55.492;13.506;2022-08-03T13:53:29;3.23;;;2.43;;
19780;SDS011;10050;55.492;13.506;2022-08-03T13:55:54;3.70;;;2.83;;
19780;SDS011;10050;55.492;13.506;2022-08-03T13:58:20;7.77;;;2.60;;
19780;SDS011;10050;55.492;13.506;2022-08-03T14:00:46;3.20;;;2.50;;
19780;SDS011;10050;55.492;13.506;2022-08-03T14:03:11;3.80;;;2.87;;
19780;SDS011;10050;55.492;13.506;2022-08-03T14:05:37;3.30;;;3.10;;
19780;SDS011;10050;55.492;13.506;2022-08-03T14:08:03;2.77;;;2.50;;
19780;SDS011;10050;55.492;13.506;2022-08-03T14:10:31;3.30;;;2.60;;
19780;SDS011;10050;55.492;13.506;2022-08-03T14:13:01;4.63;;;2.60;;
19780;SDS011;10050;55.492;13.506;2022-08-03T14:15:28;5.53;;;2.73;;
19780;SDS011;10050;55.492;13.506;2022-08-03T14:17:54;3.13;;;2.80;;
19780;SDS011;10050;55.492;13.506;2022-08-03T14:20:20;4.83;;;2.50;;
19780;SDS011;10050;55.492;13.506;2022-08-03T14:22:46;3.23;;;2.57;;
19780;SDS011;10050;55.492;13.506;2022-08-03T14:25:11;3.83;;;2.60;;
19780;SDS011;10050;55.492;13.506;2022-08-03T14:27:37;3.00;;;2.43;;
19780;SDS011;10050;55.492;13.506;2022-08-03T14:30:03;3.13;;;2.27;;
19780;SDS011;10050;55.492;13.506;2022-08-03T14:32:29;3.83;;;2.20;;
19780;SDS011;10050;55.492;13.506;2022-08-03T14:34:54;6.50;;;3.43;;
19780;SDS011;10050;55.492;13.506;2022-08-03T14:37:20;2.70;;;2.50;;
19780;SDS011;10050;55.492;13.506;2022-08-03T14:39:46;5.00;;;3.00;;
19780;SDS011;10050;55.492;13.506;2022-08-03T14:42:12;2.63;;;2.43;;
19780;SDS011;10050;55.492;13.506;2022-08-03T14:44:39;4.10;;;2.50;;
19780;SDS011;10050;55.492;13.506;2022-08-03T14:47:05;2.90;;;2.60;;
19780;SDS011;10050;55.492;13.506;2022-08-03T14:49:31;6.63;;;3.30;;
19780;SDS011;10050;55.492;13.506;2022-08-03T14:51:56;2.40;;;2.23;;
19780;SDS011;10050;55.492;13.506;2022-08-03T14:54:23;7.20;;;2.60;;
19780;SDS011;10050;55.492;13.506;2022-08-03T14:56:49;3.43;;;2.73;;
19780;SDS011;10050;55.492;13.506;2022-08-03T14:59:14;2.93;;;2.70;;
19780;SDS011;10050;55.492;13.506;2022-08-03T15:01:40;3.57;;;2.90;;
19780;SDS011;10050;55.492;13.506;2022-08-03T15:04:05;5.63;;;3.00;;
19780;SDS011;10050;55.492;13.506;2022-08-03T15:06:31;3.63;;;3.00;;
19780;SDS011;10050;55.492;13.506;2022-08-03T15:08:57;2.77;;;2.53;;
19780;SDS011;10050;55.492;13.506;2022-08-03T15:11:22;5.73;;;2.73;;
19780;SDS011;10050;55.492;13.506;2022-08-03T15:13:48;3.50;;;3.23;;
19780;SDS011;10050;55.492;13.506;2022-08-03T15:16:13;8.50;;;3.67;;
19780;SDS011;10050;55.492;13.506;2022-08-03T15:18:39;7.00;;;4.00;;
19780;SDS011;10050;55.492;13.506;2022-08-03T15:21:05;6.03;;;3.00;;
19780;SDS011;10050;55.492;13.506;2022-08-03T15:23:31;6.83;;;3.50;;
19780;SDS011;10050;55.492;13.506;2022-08-03T15:25:56;4.67;;;3.27;;
19780;SDS011;10050;55.492;13.506;2022-08-03T15:28:22;5.27;;;3.13;;
19780;SDS011;10050;55.492;13.506;2022-08-03T15:30:47;7.20;;;3.30;;
19780;SDS011;10050;55.492;13.506;2022-08-03T15:33:16;4.50;;;2.93;;
19780;SDS011;10050;55.492;13.506;2022-08-03T15:35:42;3.83;;;2.83;;
19780;SDS011;10050;55.492;13.506;2022-08-03T15:38:08;4.40;;;2.63;;